sensor_id;sensor_type;location;lat;lon;timestamp;pressure;altitude;pressure_sealevel;temperature;humidity
55916;BME280;41826;53.246;-6.670;2023-03-22T00:00:48;98238.97;;;10.67;100.00
55916;BME280;41826;53.246;-6.670;2023-03-22T00:03:14;98225.25;;;10.65;100.00
55916;BME280;41826;53.246;-6.670;2023-03-22T00:05:39;98230.50;;;10.72;100.00
55916;BME280;41826;53.246;-6.670;2023-03-22T00:08:05;98226.66;;;10.68;100.00
55916;BME280;41826;53.246;-6.670;2023-03-22T00:10:32;98226.88;;;10.66;100.00
55916;BME280;41826;53.246;-6.670;2023-03-22T00:12:58;98230.09;;;10.68;100.00
55916;BME280;41826;53.246;-6.670;2023-03-22T00:15:24;98243.00;;;10.70;100.00
55916;BME280;41826;53.246;-6.670;2023-03-22T00:17:50;98257.34;;;10.74;100.00
55916;BME280;41826;53.246;-6.670;2023-03-22T00:20:16;98278.53;;;10.72;100.00
55916;BME280;41826;53.246;-6.670;2023-03-22T00:22:42;98257.72;;;10.77;100.00
55916;BME280;41826;53.246;-6.670;2023-03-22T00:25:08;98292.66;;;10.78;100.00
55916;BME280;41826;53.246;-6.670;2023-03-22T00:27:35;98299.09;;;10.89;100.00
55916;BME280;41826;53.246;-6.670;2023-03-22T00:30:00;98303.53;;;10.95;100.00
55916;BME280;41826;53.246;-6.670;2023-03-22T00:32:26;98310.41;;;10.89;100.00
55916;BME280;41826;53.246;-6.670;2023-03-22T00:34:51;98320.69;;;10.91;100.00
55916;BME280;41826;53.246;-6.670;2023-03-22T00:37:17;98323.72;;;10.88;100.00
55916;BME280;41826;53.246;-6.670;2023-03-22T00:39:43;98349.56;;;10.97;100.00
55916;BME280;41826;53.246;-6.670;2023-03-22T00:42:08;98368.75;;;11.04;100.00
55916;BME280;41826;53.246;-6.670;2023-03-22T00:44:34;98396.84;;;11.04;100.00
55916;BME280;41826;53.246;-6.670;2023-03-22T00:47:00;98442.88;;;11.00;100.00
55916;BME280;41826;53.246;-6.670;2023-03-22T00:49:26;98483.44;;;10.91;100.00
55916;BME280;41826;53.246;-6.670;2023-03-22T00:51:52;98498.19;;;10.92;100.00
55916;BME280;41826;53.246;-6.670;2023-03-22T00:54:18;98531.66;;;10.70;100.00
55916;BME280;41826;53.246;-6.670;2023-03-22T00:56:43;98568.22;;;10.78;100.00
55916;BME280;41826;53.246;-6.670;2023-03-22T00:59:14;98606.94;;;10.69;100.00
55916;BME280;41826;53.246;-6.670;2023-03-22T01:01:40;98646.69;;;10.66;100.00
55916;BME280;41826;53.246;-6.670;2023-03-22T01:04:06;98684.94;;;10.47;100.00
55916;BME280;41826;53.246;-6.670;2023-03-22T01:06:32;98708.78;;;10.52;100.00
55916;BME280;41826;53.246;-6.670;2023-03-22T01:08:58;98764.59;;;10.18;100.00
55916;BME280;41826;53.246;-6.670;2023-03-22T01:11:24;98798.78;;;9.88;100.00
55916;BME280;41826;53.246;-6.670;2023-03-22T01:13:49;98801.59;;;10.08;100.00
55916;BME280;41826;53.246;-6.670;2023-03-22T01:16:16;98849.56;;;9.87;100.00
55916;BME280;41826;53.246;-6.670;2023-03-22T01:18:42;98866.31;;;9.71;100.00
55916;BME280;41826;53.246;-6.670;2023-03-22T01:21:07;98875.44;;;9.61;100.00
55916;BME280;41826;53.246;-6.670;2023-03-22T01:23:33;98875.72;;;9.66;100.00
55916;BME280;41826;53.246;-6.670;2023-03-22T01:25:59;98888.06;;;9.72;100.00
55916;BME280;41826;53.246;-6.670;2023-03-22T01:28:26;98882.00;;;9.86;100.00
55916;BME280;41826;53.246;-6.670;2023-03-22T01:30:52;98886.09;;;9.74;100.00
55916;BME280;41826;53.246;-6.670;2023-03-22T01:33:17;98883.31;;;9.61;100.00
55916;BME280;41826;53.246;-6.670;2023-03-22T01:35:42;98890.50;;;9.88;100.00
55916;BME280;41826;53.246;-6.670;2023-03-22T01:38:08;98892.00;;;9.97;100.00
55916;BME280;41826;53.246;-6.670;2023-03-22T01:40:33;98947.78;;;9.32;100.00
55916;BME280;41826;53.246;-6.670;2023-03-22T01:42:59;98941.31;;;9.58;100.00
55916;BME280;41826;53.246;-6.670;2023-03-22T01:45:53;98955.50;;;9.10;100.00
55916;BME280;41826;53.246;-6.670;2023-03-22T01:53:32;98973.53;;;8.82;100.00
55916;BME280;41826;53.246;-6.670;2023-03-22T01:55:59;98972.72;;;9.05;100.00
55916;BME280;41826;53.246;-6.670;2023-03-22T01:58:26;98972.97;;;8.72;100.00
55916;BME280;41826;53.246;-6.670;2023-03-22T02:00:52;98965.28;;;8.71;100.00
55916;BME280;41826;53.246;-6.670;2023-03-22T02:06:06;98981.75;;;8.56;100.00
55916;BME280;41826;53.246;-6.670;2023-03-22T02:08:32;98978.34;;;8.48;100.00
55916;BME280;41826;53.246;-6.670;2023-03-22T02:10:59;98985.09;;;8.34;100.00
55916;BME280;41826;53.246;-6.670;2023-03-22T02:13:32;98996.91;;;8.21;100.00
55916;BME280;41826;53.246;-6.670;2023-03-22T02:30:23;99009.63;;;8.24;100.00
55916;BME280;41826;53.246;-6.670;2023-03-22T02:45:54;99047.34;;;7.82;100.00
55916;BME280;41826;53.246;-6.670;2023-03-22T02:48:31;99059.25;;;7.85;100.00
55916;BME280;41826;53.246;-6.670;2023-03-22T02:51:24;99051.25;;;7.62;100.00
55916;BME280;41826;53.246;-6.670;2023-03-22T02:53:57;99063.84;;;7.75;100.00
55916;BME280;41826;53.246;-6.670;2023-03-22T02:57:44;99064.47;;;7.77;100.00
55916;BME280;41826;53.246;-6.670;2023-03-22T02:59:44;99066.44;;;7.67;100.00
55916;BME280;41826;53.246;-6.670;2023-03-22T03:02:13;99066.28;;;7.52;100.00
55916;BME280;41826;53.246;-6.670;2023-03-22T03:04:45;99074.63;;;7.39;100.00
55916;BME280;41826;53.246;-6.670;2023-03-22T03:07:13;99071.19;;;7.63;100.00
55916;BME280;41826;53.246;-6.670;2023-03-22T03:09:41;99078.03;;;7.64;100.00
55916;BME280;41826;53.246;-6.670;2023-03-22T03:12:17;99072.81;;;7.15;100.00
55916;BME280;41826;53.246;-6.670;2023-03-22T03:14:45;99069.69;;;7.03;100.00
55916;BME280;41826;53.246;-6.670;2023-03-22T03:33:36;99095.00;;;7.19;100.00
55916;BME280;41826;53.246;-6.670;2023-03-22T03:36:07;99098.56;;;7.02;100.00
55916;BME280;41826;53.246;-6.670;2023-03-22T03:38:38;99097.38;;;6.96;100.00
55916;BME280;41826;53.246;-6.670;2023-03-22T03:41:14;99101.81;;;7.04;100.00
55916;BME280;41826;53.246;-6.670;2023-03-22T03:43:42;99103.69;;;6.69;100.00
55916;BME280;41826;53.246;-6.670;2023-03-22T03:46:10;99116.09;;;6.83;100.00
55916;BME280;41826;53.246;-6.670;2023-03-22T03:48:37;99126.50;;;6.67;100.00
55916;BME280;41826;53.246;-6.670;2023-03-22T03:51:04;99126.19;;;6.70;100.00
55916;BME280;41826;53.246;-6.670;2023-03-22T03:53:30;99137.88;;;6.66;100.00
55916;BME280;41826;53.246;-6.670;2023-03-22T03:55:56;99135.28;;;6.66;100.00
55916;BME280;41826;53.246;-6.670;2023-03-22T03:58:21;99132.25;;;6.44;100.00
55916;BME280;41826;53.246;-6.670;2023-03-22T04:00:48;99131.78;;;6.49;100.00
55916;BME280;41826;53.246;-6.670;2023-03-22T04:03:14;99136.19;;;6.48;100.00
55916;BME280;41826;53.246;-6.670;2023-03-22T04:05:39;99152.03;;;6.63;100.00
55916;BME280;41826;53.246;-6.670;2023-03-22T04:08:06;99149.69;;;6.44;100.00
55916;BME280;41826;53.246;-6.670;2023-03-22T04:10:31;99148.28;;;6.58;100.00
55916;BME280;41826;53.246;-6.670;2023-03-22T04:12:57;99143.38;;;6.55;100.00
55916;BME280;41826;53.246;-6.670;2023-03-22T04:15:22;99146.28;;;6.43;100.00
55916;BME280;41826;53.246;-6.670;2023-03-22T04:17:48;99157.09;;;6.57;100.00
55916;BME280;41826;53.246;-6.670;2023-03-22T04:20:13;99149.78;;;6.34;100.00
55916;BME280;41826;53.246;-6.670;2023-03-22T04:22:40;99145.84;;;6.30;100.00
55916;BME280;41826;53.246;-6.670;2023-03-22T04:25:11;99148.94;;;6.25;100.00
55916;BME280;41826;53.246;-6.670;2023-03-22T04:27:38;99159.72;;;6.31;100.00
55916;BME280;41826;53.246;-6.670;2023-03-22T04:30:06;99153.63;;;6.22;100.00
55916;BME280;41826;53.246;-6.670;2023-03-22T04:32:35;99153.59;;;6.14;100.00
55916;BME280;41826;53.246;-6.670;2023-03-22T04:35:00;99162.88;;;6.16;100.00
55916;BME280;41826;53.246;-6.670;2023-03-22T04:37:26;99170.78;;;6.33;100.00
55916;BME280;41826;53.246;-6.670;2023-03-22T04:39:52;99176.81;;;6.07;100.00
55916;BME280;41826;53.246;-6.670;2023-03-22T04:42:18;99173.81;;;6.20;100.00
55916;BME280;41826;53.246;-6.670;2023-03-22T04:44:43;99190.56;;;6.17;100.00
55916;BME280;41826;53.246;-6.670;2023-03-22T04:47:09;99185.97;;;5.93;100.00
55916;BME280;41826;53.246;-6.670;2023-03-22T04:49:35;99185.44;;;5.90;100.00
55916;BME280;41826;53.246;-6.670;2023-03-22T04:52:00;99185.91;;;6.03;100.00
55916;BME280;41826;53.246;-6.670;2023-03-22T04:54:26;99188.16;;;5.98;100.00
55916;BME280;41826;53.246;-6.670;2023-03-22T04:56:51;99186.91;;;5.92;100.00
55916;BME280;41826;53.246;-6.670;2023-03-22T04:59:17;99189.09;;;5.79;100.00
55916;BME280;41826;53.246;-6.670;2023-03-22T05:01:45;99196.78;;;5.80;100.00
55916;BME280;41826;53.246;-6.670;2023-03-22T05:04:11;99188.34;;;5.86;100.00
55916;BME280;41826;53.246;-6.670;2023-03-22T05:06:36;99192.03;;;5.94;100.00
55916;BME280;41826;53.246;-6.670;2023-03-22T05:09:02;99203.97;;;5.86;100.00
55916;BME280;41826;53.246;-6.670;2023-03-22T05:11:28;99199.13;;;5.92;100.00
55916;BME280;41826;53.246;-6.670;2023-03-22T05:13:54;99198.03;;;5.58;100.00
55916;BME280;41826;53.246;-6.670;2023-03-22T05:16:19;99201.91;;;5.72;100.00
55916;BME280;41826;53.246;-6.670;2023-03-22T05:18:45;99205.59;;;5.70;100.00
55916;BME280;41826;53.246;-6.670;2023-03-22T05:21:17;99199.53;;;5.61;100.00
55916;BME280;41826;53.246;-6.670;2023-03-22T05:23:46;99191.47;;;5.54;100.00
55916;BME280;41826;53.246;-6.670;2023-03-22T05:26:12;99185.38;;;5.63;100.00
55916;BME280;41826;53.246;-6.670;2023-03-22T05:28:41;99188.44;;;5.59;100.00
55916;BME280;41826;53.246;-6.670;2023-03-22T05:31:06;99191.03;;;5.77;100.00
55916;BME280;41826;53.246;-6.670;2023-03-22T05:33:33;99188.97;;;5.80;100.00
55916;BME280;41826;53.246;-6.670;2023-03-22T05:35:59;99185.19;;;5.75;100.00
55916;BME280;41826;53.246;-6.670;2023-03-22T05:38:24;99184.50;;;5.55;100.00
55916;BME280;41826;53.246;-6.670;2023-03-22T05:40:50;99169.34;;;5.50;100.00
55916;BME280;41826;53.246;-6.670;2023-03-22T05:43:16;99176.16;;;5.51;100.00
55916;BME280;41826;53.246;-6.670;2023-03-22T05:45:42;99170.00;;;5.52;100.00
55916;BME280;41826;53.246;-6.670;2023-03-22T05:48:07;99169.25;;;5.60;100.00
55916;BME280;41826;53.246;-6.670;2023-03-22T05:50:33;99172.59;;;5.52;100.00
55916;BME280;41826;53.246;-6.670;2023-03-22T05:52:59;99173.50;;;5.43;100.00
55916;BME280;41826;53.246;-6.670;2023-03-22T05:55:25;99182.34;;;5.68;100.00
55916;BME280;41826;53.246;-6.670;2023-03-22T05:57:50;99189.25;;;5.59;100.00
55916;BME280;41826;53.246;-6.670;2023-03-22T06:00:18;99188.59;;;5.57;100.00
55916;BME280;41826;53.246;-6.670;2023-03-22T06:02:46;99191.78;;;5.51;100.00
55916;BME280;41826;53.246;-6.670;2023-03-22T06:05:13;99199.44;;;5.53;100.00
55916;BME280;41826;53.246;-6.670;2023-03-22T06:07:40;99206.72;;;5.49;100.00
55916;BME280;41826;53.246;-6.670;2023-03-22T06:10:07;99209.31;;;5.49;100.00
55916;BME280;41826;53.246;-6.670;2023-03-22T06:12:35;99207.09;;;5.54;100.00
55916;BME280;41826;53.246;-6.670;2023-03-22T06:15:00;99197.22;;;5.58;100.00
55916;BME280;41826;53.246;-6.670;2023-03-22T06:17:26;99194.00;;;5.46;100.00
55916;BME280;41826;53.246;-6.670;2023-03-22T06:19:51;99203.84;;;5.52;100.00
55916;BME280;41826;53.246;-6.670;2023-03-22T06:22:18;99206.06;;;5.47;100.00
55916;BME280;41826;53.246;-6.670;2023-03-22T06:24:44;99200.25;;;5.53;100.00
55916;BME280;41826;53.246;-6.670;2023-03-22T06:27:10;99194.75;;;5.38;100.00
55916;BME280;41826;53.246;-6.670;2023-03-22T06:29:36;99201.88;;;5.54;100.00
55916;BME280;41826;53.246;-6.670;2023-03-22T06:32:01;99201.31;;;5.60;100.00
55916;BME280;41826;53.246;-6.670;2023-03-22T06:34:27;99205.78;;;5.50;100.00
55916;BME280;41826;53.246;-6.670;2023-03-22T06:36:53;99199.44;;;5.35;100.00
55916;BME280;41826;53.246;-6.670;2023-03-22T06:39:19;99203.38;;;5.39;100.00
55916;BME280;41826;53.246;-6.670;2023-03-22T06:41:45;99193.69;;;5.49;100.00
55916;BME280;41826;53.246;-6.670;2023-03-22T06:44:11;99193.63;;;5.41;100.00
55916;BME280;41826;53.246;-6.670;2023-03-22T06:46:36;99191.56;;;5.45;100.00
55916;BME280;41826;53.246;-6.670;2023-03-22T06:49:02;99192.59;;;5.70;100.00
55916;BME280;41826;53.246;-6.670;2023-03-22T06:51:28;99189.84;;;5.53;100.00
55916;BME280;41826;53.246;-6.670;2023-03-22T06:53:53;99194.38;;;5.69;100.00
55916;BME280;41826;53.246;-6.670;2023-03-22T06:56:18;99189.34;;;5.68;100.00
55916;BME280;41826;53.246;-6.670;2023-03-22T06:58:44;99177.66;;;5.72;100.00
55916;BME280;41826;53.246;-6.670;2023-03-22T07:01:10;99177.19;;;5.76;100.00
55916;BME280;41826;53.246;-6.670;2023-03-22T07:03:35;99183.09;;;5.60;100.00
55916;BME280;41826;53.246;-6.670;2023-03-22T07:06:09;99182.28;;;5.78;100.00
55916;BME280;41826;53.246;-6.670;2023-03-22T07:08:35;99179.28;;;6.08;100.00
55916;BME280;41826;53.246;-6.670;2023-03-22T07:11:01;99189.03;;;5.89;100.00
55916;BME280;41826;53.246;-6.670;2023-03-22T07:13:27;99184.19;;;6.12;100.00
55916;BME280;41826;53.246;-6.670;2023-03-22T07:15:56;99184.53;;;6.17;100.00
55916;BME280;41826;53.246;-6.670;2023-03-22T07:18:23;99182.59;;;6.19;100.00
55916;BME280;41826;53.246;-6.670;2023-03-22T07:20:48;99185.44;;;6.25;100.00
55916;BME280;41826;53.246;-6.670;2023-03-22T07:23:14;99200.34;;;6.41;100.00
55916;BME280;41826;53.246;-6.670;2023-03-22T07:25:41;99200.31;;;6.33;100.00
55916;BME280;41826;53.246;-6.670;2023-03-22T07:28:06;99210.75;;;6.67;100.00
55916;BME280;41826;53.246;-6.670;2023-03-22T07:30:32;99211.06;;;6.64;100.00
55916;BME280;41826;53.246;-6.670;2023-03-22T07:33:02;99206.16;;;6.61;100.00
55916;BME280;41826;53.246;-6.670;2023-03-22T07:35:27;99211.03;;;6.90;100.00
55916;BME280;41826;53.246;-6.670;2023-03-22T07:37:53;99213.66;;;6.99;100.00
55916;BME280;41826;53.246;-6.670;2023-03-22T07:40:19;99202.09;;;7.01;100.00
55916;BME280;41826;53.246;-6.670;2023-03-22T07:42:47;99198.88;;;7.15;100.00
55916;BME280;41826;53.246;-6.670;2023-03-22T07:45:12;99204.84;;;6.91;100.00
55916;BME280;41826;53.246;-6.670;2023-03-22T07:47:38;99203.31;;;7.23;100.00
55916;BME280;41826;53.246;-6.670;2023-03-22T07:50:04;99206.59;;;7.33;100.00
55916;BME280;41826;53.246;-6.670;2023-03-22T07:52:29;99198.88;;;7.15;100.00
55916;BME280;41826;53.246;-6.670;2023-03-22T07:54:54;99200.75;;;7.40;100.00
55916;BME280;41826;53.246;-6.670;2023-03-22T07:57:20;99192.28;;;7.37;100.00
55916;BME280;41826;53.246;-6.670;2023-03-22T07:59:45;99191.28;;;7.47;100.00
55916;BME280;41826;53.246;-6.670;2023-03-22T08:02:10;99192.94;;;7.64;100.00
55916;BME280;41826;53.246;-6.670;2023-03-22T08:04:36;99200.81;;;7.72;100.00
55916;BME280;41826;53.246;-6.670;2023-03-22T08:07:01;99191.34;;;7.88;100.00
55916;BME280;41826;53.246;-6.670;2023-03-22T08:09:27;99180.56;;;7.66;100.00
55916;BME280;41826;53.246;-6.670;2023-03-22T08:11:52;99183.19;;;7.99;100.00
55916;BME280;41826;53.246;-6.670;2023-03-22T08:14:18;99174.19;;;8.01;100.00
55916;BME280;41826;53.246;-6.670;2023-03-22T08:16:43;99167.19;;;8.10;100.00
55916;BME280;41826;53.246;-6.670;2023-03-22T08:19:09;99159.66;;;7.99;100.00
55916;BME280;41826;53.246;-6.670;2023-03-22T08:21:35;99163.25;;;8.06;100.00
55916;BME280;41826;53.246;-6.670;2023-03-22T08:24:01;99151.63;;;8.17;100.00
55916;BME280;41826;53.246;-6.670;2023-03-22T08:26:26;99150.97;;;8.15;100.00
55916;BME280;41826;53.246;-6.670;2023-03-22T08:28:52;99149.19;;;8.23;100.00
55916;BME280;41826;53.246;-6.670;2023-03-22T08:31:17;99160.09;;;8.35;100.00
55916;BME280;41826;53.246;-6.670;2023-03-22T08:33:44;99159.44;;;8.50;100.00
55916;BME280;41826;53.246;-6.670;2023-03-22T08:36:13;99160.03;;;8.68;100.00
55916;BME280;41826;53.246;-6.670;2023-03-22T08:38:39;99152.41;;;8.50;100.00
55916;BME280;41826;53.246;-6.670;2023-03-22T08:41:04;99150.63;;;8.42;100.00
55916;BME280;41826;53.246;-6.670;2023-03-22T08:43:29;99147.84;;;8.28;100.00
55916;BME280;41826;53.246;-6.670;2023-03-22T08:45:55;99151.31;;;8.28;100.00
55916;BME280;41826;53.246;-6.670;2023-03-22T08:48:21;99146.22;;;8.27;100.00
55916;BME280;41826;53.246;-6.670;2023-03-22T08:50:46;99145.53;;;8.33;100.00
55916;BME280;41826;53.246;-6.670;2023-03-22T08:53:12;99149.66;;;8.43;100.00
55916;BME280;41826;53.246;-6.670;2023-03-22T08:55:38;99140.78;;;8.53;100.00
55916;BME280;41826;53.246;-6.670;2023-03-22T08:58:09;99140.31;;;8.49;100.00
55916;BME280;41826;53.246;-6.670;2023-03-22T09:00:35;99134.91;;;8.59;100.00
55916;BME280;41826;53.246;-6.670;2023-03-22T09:03:00;99137.00;;;8.63;100.00
55916;BME280;41826;53.246;-6.670;2023-03-22T09:05:26;99127.84;;;8.59;100.00
55916;BME280;41826;53.246;-6.670;2023-03-22T09:07:52;99127.47;;;8.79;100.00
55916;BME280;41826;53.246;-6.670;2023-03-22T09:10:17;99119.13;;;8.75;100.00
55916;BME280;41826;53.246;-6.670;2023-03-22T09:12:42;99112.38;;;8.81;100.00
55916;BME280;41826;53.246;-6.670;2023-03-22T09:15:08;99098.53;;;8.72;100.00
55916;BME280;41826;53.246;-6.670;2023-03-22T09:17:34;99098.41;;;8.65;100.00
55916;BME280;41826;53.246;-6.670;2023-03-22T09:20:00;99086.66;;;8.61;100.00
55916;BME280;41826;53.246;-6.670;2023-03-22T09:22:26;99104.66;;;8.56;100.00
55916;BME280;41826;53.246;-6.670;2023-03-22T09:24:51;99104.28;;;8.67;100.00
55916;BME280;41826;53.246;-6.670;2023-03-22T09:27:17;99087.25;;;8.24;100.00
55916;BME280;41826;53.246;-6.670;2023-03-22T09:29:42;99096.72;;;8.25;100.00
55916;BME280;41826;53.246;-6.670;2023-03-22T09:32:07;99101.59;;;8.36;100.00
55916;BME280;41826;53.246;-6.670;2023-03-22T09:34:33;99092.09;;;8.52;100.00
55916;BME280;41826;53.246;-6.670;2023-03-22T09:36:58;99100.25;;;8.57;100.00
55916;BME280;41826;53.246;-6.670;2023-03-22T09:39:27;99108.25;;;8.55;100.00
55916;BME280;41826;53.246;-6.670;2023-03-22T09:41:59;99117.09;;;8.38;100.00
55916;BME280;41826;53.246;-6.670;2023-03-22T09:44:29;99112.88;;;8.37;100.00
55916;BME280;41826;53.246;-6.670;2023-03-22T09:46:58;99113.06;;;8.19;100.00
55916;BME280;41826;53.246;-6.670;2023-03-22T09:49:37;99134.13;;;8.42;100.00
55916;BME280;41826;53.246;-6.670;2023-03-22T09:52:11;99119.91;;;8.36;100.00
55916;BME280;41826;53.246;-6.670;2023-03-22T09:54:39;99128.09;;;8.25;100.00
55916;BME280;41826;53.246;-6.670;2023-03-22T09:57:28;99126.28;;;8.34;100.00
55916;BME280;41826;53.246;-6.670;2023-03-22T10:11:45;99135.47;;;9.08;100.00
55916;BME280;41826;53.246;-6.670;2023-03-22T10:14:50;99120.59;;;9.09;100.00
55916;BME280;41826;53.246;-6.670;2023-03-22T10:17:22;99115.03;;;9.04;100.00
55916;BME280;41826;53.246;-6.670;2023-03-22T10:19:55;99116.88;;;9.26;100.00
55916;BME280;41826;53.246;-6.670;2023-03-22T10:22:28;99115.13;;;9.42;100.00
55916;BME280;41826;53.246;-6.670;2023-03-22T10:24:55;99109.06;;;9.41;100.00
55916;BME280;41826;53.246;-6.670;2023-03-22T10:27:22;99112.56;;;9.57;100.00
55916;BME280;41826;53.246;-6.670;2023-03-22T10:30:07;99095.00;;;9.42;100.00
55916;BME280;41826;53.246;-6.670;2023-03-22T10:32:43;99106.50;;;9.56;100.00
55916;BME280;41826;53.246;-6.670;2023-03-22T10:35:14;99105.34;;;9.59;100.00
55916;BME280;41826;53.246;-6.670;2023-03-22T10:37:44;99103.72;;;9.58;100.00
55916;BME280;41826;53.246;-6.670;2023-03-22T10:40:24;99104.09;;;9.54;100.00
55916;BME280;41826;53.246;-6.670;2023-03-22T10:42:53;99093.63;;;9.69;100.00
55916;BME280;41826;53.246;-6.670;2023-03-22T10:45:23;99105.34;;;9.59;100.00
55916;BME280;41826;53.246;-6.670;2023-03-22T10:48:12;99093.06;;;9.59;100.00
55916;BME280;41826;53.246;-6.670;2023-03-22T10:50:42;99103.78;;;9.72;100.00
55916;BME280;41826;53.246;-6.670;2023-03-22T10:53:28;99103.09;;;9.93;100.00
55916;BME280;41826;53.246;-6.670;2023-03-22T10:55:56;99098.38;;;9.89;100.00
55916;BME280;41826;53.246;-6.670;2023-03-22T10:58:27;99103.69;;;9.81;100.00
55916;BME280;41826;53.246;-6.670;2023-03-22T11:01:02;99098.81;;;9.92;100.00
55916;BME280;41826;53.246;-6.670;2023-03-22T11:06:00;99098.16;;;9.75;100.00
55916;BME280;41826;53.246;-6.670;2023-03-22T11:08:25;99105.63;;;10.02;100.00
55916;BME280;41826;53.246;-6.670;2023-03-22T11:10:51;99094.84;;;9.96;100.00
55916;BME280;41826;53.246;-6.670;2023-03-22T11:13:19;99084.25;;;9.90;100.00
55916;BME280;41826;53.246;-6.670;2023-03-22T11:15:51;99081.50;;;10.21;100.00
55916;BME280;41826;53.246;-6.670;2023-03-22T11:18:18;99074.56;;;10.28;100.00
55916;BME280;41826;53.246;-6.670;2023-03-22T11:21:05;99071.38;;;10.33;100.00
55916;BME280;41826;53.246;-6.670;2023-03-22T11:23:32;99052.47;;;10.37;100.00
55916;BME280;41826;53.246;-6.670;2023-03-22T11:26:06;99034.91;;;10.53;100.00
55916;BME280;41826;53.246;-6.670;2023-03-22T11:28:41;99001.94;;;10.44;100.00
55916;BME280;41826;53.246;-6.670;2023-03-22T11:31:13;98973.19;;;10.57;100.00
55916;BME280;41826;53.246;-6.670;2023-03-22T11:33:56;98965.84;;;10.67;100.00
55916;BME280;41826;53.246;-6.670;2023-03-22T11:36:22;98965.66;;;10.69;100.00
55916;BME280;41826;53.246;-6.670;2023-03-22T11:38:58;98963.13;;;11.03;100.00
55916;BME280;41826;53.246;-6.670;2023-03-22T11:41:26;98946.84;;;10.87;100.00
55916;BME280;41826;53.246;-6.670;2023-03-22T11:43:55;98926.84;;;10.85;100.00
55916;BME280;41826;53.246;-6.670;2023-03-22T11:46:21;98925.72;;;10.95;100.00
55916;BME280;41826;53.246;-6.670;2023-03-22T11:48:49;98943.06;;;11.17;100.00
55916;BME280;41826;53.246;-6.670;2023-03-22T11:51:24;98940.81;;;11.14;100.00
55916;BME280;41826;53.246;-6.670;2023-03-22T11:53:54;98914.69;;;11.06;100.00
55916;BME280;41826;53.246;-6.670;2023-03-22T11:56:26;98912.75;;;11.15;100.00
55916;BME280;41826;53.246;-6.670;2023-03-22T11:59:12;98924.06;;;11.15;100.00
55916;BME280;41826;53.246;-6.670;2023-03-22T12:01:41;98932.25;;;11.05;100.00
55916;BME280;41826;53.246;-6.670;2023-03-22T12:04:15;98923.09;;;10.95;100.00
55916;BME280;41826;53.246;-6.670;2023-03-22T12:06:43;98908.69;;;11.12;100.00
55916;BME280;41826;53.246;-6.670;2023-03-22T12:09:27;98914.88;;;11.33;100.00
55916;BME280;41826;53.246;-6.670;2023-03-22T12:11:58;98859.72;;;11.39;100.00
55916;BME280;41826;53.246;-6.670;2023-03-22T12:14:32;98889.59;;;11.60;100.00
55916;BME280;41826;53.246;-6.670;2023-03-22T12:17:10;98861.84;;;11.50;100.00
55916;BME280;41826;53.246;-6.670;2023-03-22T12:22:28;98767.63;;;11.47;100.00
55916;BME280;41826;53.246;-6.670;2023-03-22T12:24:54;98740.91;;;11.44;100.00
55916;BME280;41826;53.246;-6.670;2023-03-22T12:27:24;98728.25;;;11.61;100.00
55916;BME280;41826;53.246;-6.670;2023-03-22T12:29:57;98717.75;;;11.74;100.00
55916;BME280;41826;53.246;-6.670;2023-03-22T12:32:27;98620.50;;;11.81;100.00
55916;BME280;41826;53.246;-6.670;2023-03-22T12:34:55;98474.31;;;11.66;100.00
55916;BME280;41826;53.246;-6.670;2023-03-22T12:37:27;98340.34;;;11.60;100.00
55916;BME280;41826;53.246;-6.670;2023-03-22T12:40:07;98387.78;;;11.71;100.00
55916;BME280;41826;53.246;-6.670;2023-03-22T12:42:47;98317.91;;;11.57;100.00
55916;BME280;41826;53.246;-6.670;2023-03-22T12:45:17;98254.50;;;11.40;100.00
55916;BME280;41826;53.246;-6.670;2023-03-22T12:47:48;98279.84;;;11.66;100.00
55916;BME280;41826;53.246;-6.670;2023-03-22T12:50:48;98230.19;;;11.52;100.00
55916;BME280;41826;53.246;-6.670;2023-03-22T12:53:17;98201.09;;;11.53;100.00
55916;BME280;41826;53.246;-6.670;2023-03-22T12:55:45;98208.28;;;11.71;100.00
55916;BME280;41826;53.246;-6.670;2023-03-22T12:58:22;98159.34;;;11.70;100.00
55916;BME280;41826;53.246;-6.670;2023-03-22T13:00:55;98156.22;;;11.55;100.00
55916;BME280;41826;53.246;-6.670;2023-03-22T13:03:28;98182.38;;;11.43;100.00
55916;BME280;41826;53.246;-6.670;2023-03-22T13:06:06;98211.00;;;11.51;100.00
55916;BME280;41826;53.246;-6.670;2023-03-22T13:09:48;98234.50;;;11.39;100.00
55916;BME280;41826;53.246;-6.670;2023-03-22T13:20:22;98269.84;;;11.82;100.00
55916;BME280;41826;53.246;-6.670;2023-03-22T13:28:34;98286.69;;;11.74;100.00
55916;BME280;41826;53.246;-6.670;2023-03-22T13:30:48;98311.72;;;11.83;100.00
55916;BME280;41826;53.246;-6.670;2023-03-22T13:38:28;98270.13;;;11.74;100.00
55916;BME280;41826;53.246;-6.670;2023-03-22T13:41:06;98242.94;;;11.55;100.00
55916;BME280;41826;53.246;-6.670;2023-03-22T13:54:02;98221.59;;;11.69;100.00
55916;BME280;41826;53.246;-6.670;2023-03-22T14:01:49;98173.28;;;12.02;100.00
55916;BME280;41826;53.246;-6.670;2023-03-22T14:04:20;98150.09;;;12.18;100.00
55916;BME280;41826;53.246;-6.670;2023-03-22T14:06:54;98096.06;;;11.97;100.00
55916;BME280;41826;53.246;-6.670;2023-03-22T14:09:38;98099.81;;;12.07;100.00
55916;BME280;41826;53.246;-6.670;2023-03-22T14:12:24;98126.88;;;11.89;100.00
55916;BME280;41826;53.246;-6.670;2023-03-22T14:15:00;98269.31;;;11.28;100.00
55916;BME280;41826;53.246;-6.670;2023-03-22T14:17:47;98475.16;;;10.94;100.00
55916;BME280;41826;53.246;-6.670;2023-03-22T14:20:16;98588.50;;;11.04;100.00
55916;BME280;41826;53.246;-6.670;2023-03-22T14:22:53;98626.28;;;11.16;100.00
55916;BME280;41826;53.246;-6.670;2023-03-22T14:25:26;98629.56;;;11.38;100.00
55916;BME280;41826;53.246;-6.670;2023-03-22T14:27:52;98626.38;;;11.63;100.00
55916;BME280;41826;53.246;-6.670;2023-03-22T14:30:26;98623.94;;;11.61;100.00
55916;BME280;41826;53.246;-6.670;2023-03-22T14:32:54;98617.06;;;11.54;100.00
55916;BME280;41826;53.246;-6.670;2023-03-22T14:35:31;98591.78;;;11.59;100.00
55916;BME280;41826;53.246;-6.670;2023-03-22T14:38:01;98569.97;;;11.59;100.00
55916;BME280;41826;53.246;-6.670;2023-03-22T14:40:30;98538.78;;;11.82;100.00